Time;durP1;ratioP1;P1;durP2;ratioP2;P2;SDS_P1;SDS_P2;PMS_P1;PMS_P2;Temp;Humidity;BMP_temperature;BMP_pressure;BME280_temperature;BME280_humidity;BME280_pressure;Samples;Min_cycle;Max_cycle;Signal;HPM_P1;HPM_P2
2022/02/08 00:00:05;;;;;;;4.93;1.50;;;;;;;;;;4458274;28;20034;-64
2022/02/08 00:02:19;;;;;;;3.95;1.10;;;;;;;;;;4458691;28;20629;-65
2022/02/08 00:04:29;;;;;;;4.15;1.50;;;;;;;;;;4460041;28;20043;-65
2022/02/08 00:06:45;;;;;;;3.47;1.40;;;;;;;;;;4431617;28;20498;-65
2022/02/08 00:08:56;;;;;;;3.13;1.27;;;;;;;;;;4460127;28;20558;-65
2022/02/08 00:11:07;;;;;;;4.00;1.40;;;;;;;;;;4461606;28;20038;-64
2022/02/08 00:13:17;;;;;;;3.80;1.23;;;;;;;;;;4461847;28;20506;-64
2022/02/08 00:15:28;;;;;;;3.50;1.07;;;;;;;;;;4458564;28;20768;-65
2022/02/08 00:17:38;;;;;;;3.33;1.10;;;;;;;;;;4458892;28;38060;-65
2022/02/08 00:19:49;;;;;;;7.03;1.50;;;;;;;;;;4458042;28;20035;-65
2022/02/08 00:21:59;;;;;;;4.73;1.53;;;;;;;;;;4441215;28;20062;-65
2022/02/08 00:24:10;;;;;;;2.00;1.10;;;;;;;;;;4460945;28;22224;-64
2022/02/08 00:26:20;;;;;;;3.57;1.20;;;;;;;;;;4443840;28;20209;-65
2022/02/08 00:28:30;;;;;;;2.70;1.40;;;;;;;;;;4444566;28;20071;-65
2022/02/08 00:30:41;;;;;;;3.17;1.37;;;;;;;;;;4459190;28;20042;-65
2022/02/08 00:32:52;;;;;;;3.53;1.40;;;;;;;;;;4459946;28;20042;-65
2022/02/08 00:35:02;;;;;;;4.40;1.53;;;;;;;;;;4442014;28;20077;-64
2022/02/08 00:37:13;;;;;;;3.70;1.30;;;;;;;;;;4460241;28;20593;-64
2022/02/08 00:39:24;;;;;;;3.37;1.07;;;;;;;;;;4460079;28;20026;-65
2022/02/08 00:41:36;;;;;;;3.63;1.20;;;;;;;;;;4459722;28;20094;-65
2022/02/08 00:44:02;;;;;;;4.20;1.38;;;;;;;;;;4459967;28;20031;-65
2022/02/08 00:46:19;;;;;;;2.53;1.20;;;;;;;;;;4461235;28;20039;-64
2022/02/08 00:48:37;;;;;;;3.63;0.93;;;;;;;;;;4457910;28;20043;-65
2022/02/08 00:50:50;;;;;;;4.43;1.35;;;;;;;;;;4457927;28;20035;-65
2022/02/08 00:53:01;;;;;;;4.05;1.45;;;;;;;;;;4442466;28;20039;-65
2022/02/08 00:55:12;;;;;;;1.83;1.10;;;;;;;;;;4460354;28;20046;-64
2022/02/08 00:57:26;;;;;;;3.53;1.40;;;;;;;;;;4459025;28;20031;-65
2022/02/08 00:59:37;;;;;;;6.37;1.30;;;;;;;;;;4460219;28;20499;-65
2022/02/08 01:01:48;;;;;;;5.40;1.48;;;;;;;;;;4441606;28;20027;-64
2022/02/08 01:03:58;;;;;;;3.10;1.10;;;;;;;;;;4442502;28;20740;-65
2022/02/08 01:06:10;;;;;;;3.97;1.30;;;;;;;;;;4458527;28;20070;-64
2022/02/08 01:08:26;;;;;;;4.20;1.50;;;;;;;;;;4461474;28;20031;-64
2022/02/08 01:10:39;;;;;;;3.70;1.13;;;;;;;;;;4460828;28;20604;-65
2022/02/08 01:12:50;;;;;;;4.97;1.48;;;;;;;;;;4459070;28;20633;-64
2022/02/08 01:15:01;;;;;;;4.40;1.42;;;;;;;;;;4444161;28;20043;-64
2022/02/08 01:17:13;;;;;;;3.38;1.27;;;;;;;;;;4445632;28;20046;-65
2022/02/08 01:19:24;;;;;;;4.28;1.20;;;;;;;;;;4461854;28;20030;-65
2022/02/08 01:21:34;;;;;;;3.97;1.30;;;;;;;;;;4462028;28;20040;-64
2022/02/08 01:23:45;;;;;;;6.23;1.73;;;;;;;;;;4445060;28;20256;-64
2022/02/08 01:25:59;;;;;;;4.30;1.40;;;;;;;;;;4433913;28;20043;-65
2022/02/08 01:28:18;;;;;;;4.25;1.23;;;;;;;;;;4462525;28;20039;-64
2022/02/08 01:30:42;;;;;;;3.97;1.13;;;;;;;;;;4460356;28;20019;-65
2022/02/08 01:33:18;;;;;;;4.38;1.40;;;;;;;;;;4461554;28;20035;-64
2022/02/08 01:35:46;;;;;;;3.70;1.38;;;;;;;;;;4462924;28;20642;-64
2022/02/08 01:38:04;;;;;;;4.97;1.38;;;;;;;;;;4462884;28;20035;-65
2022/02/08 01:40:52;;;;;;;4.70;1.50;;;;;;;;;;4462477;28;20031;-64
2022/02/08 01:47:27;;;;;;;3.10;1.20;;;;;;;;;;4460863;28;20031;-64
2022/02/08 01:49:55;;;;;;;5.00;1.80;;;;;;;;;;4462128;28;20082;-65
2022/02/08 01:52:07;;;;;;;4.78;1.50;;;;;;;;;;4444064;28;20833;-64
2022/02/08 01:54:17;;;;;;;4.45;1.50;;;;;;;;;;4443678;28;20138;-64
2022/02/08 01:56:28;;;;;;;4.00;1.40;;;;;;;;;;4461610;28;20125;-64
2022/02/08 01:58:40;;;;;;;5.20;1.38;;;;;;;;;;4445303;28;20139;-65
2022/02/08 02:01:10;;;;;;;4.85;1.30;;;;;;;;;;4448850;28;20585;-64
2022/02/08 02:03:20;;;;;;;4.13;1.30;;;;;;;;;;4462133;28;20090;-64
2022/02/08 02:05:31;;;;;;;5.97;1.57;;;;;;;;;;4462706;28;20106;-65
2022/02/08 02:07:48;;;;;;;4.50;1.45;;;;;;;;;;4461345;28;20126;-65
2022/02/08 02:09:59;;;;;;;3.88;1.50;;;;;;;;;;4442478;28;20032;-65
2022/02/08 02:12:13;;;;;;;2.65;1.10;;;;;;;;;;4460212;28;20046;-64
2022/02/08 02:14:24;;;;;;;3.78;1.50;;;;;;;;;;4460093;28;20748;-64
2022/02/08 02:16:51;;;;;;;4.35;1.50;;;;;;;;;;4446826;28;21564;-64
2022/02/08 02:19:03;;;;;;;3.45;1.40;;;;;;;;;;4442817;28;20027;-65
2022/02/08 02:21:17;;;;;;;4.70;1.38;;;;;;;;;;4445370;28;20075;-65
2022/02/08 02:23:27;;;;;;;3.53;1.30;;;;;;;;;;4462007;28;20132;-65
2022/02/08 02:25:38;;;;;;;3.83;1.40;;;;;;;;;;4460868;28;20069;-65
2022/02/08 02:27:49;;;;;;;4.07;1.60;;;;;;;;;;4444178;28;20124;-65
2022/02/08 02:30:00;;;;;;;4.40;1.50;;;;;;;;;;4444489;28;20036;-64
2022/02/08 02:32:13;;;;;;;4.17;1.50;;;;;;;;;;4458087;28;20043;-65
2022/02/08 02:34:24;;;;;;;4.25;1.63;;;;;;;;;;4460290;28;20630;-64
2022/02/08 02:36:34;;;;;;;3.67;1.40;;;;;;;;;;4445061;28;20115;-64
2022/02/08 02:38:45;;;;;;;4.10;1.37;;;;;;;;;;4412230;28;20043;-64
2022/02/08 02:40:58;;;;;;;3.33;1.40;;;;;;;;;;4449812;28;20031;-64
2022/02/08 02:43:10;;;;;;;3.28;1.30;;;;;;;;;;4464511;28;20053;-64
2022/02/08 02:45:22;;;;;;;4.10;1.38;;;;;;;;;;4460958;28;20150;-64
2022/02/08 02:47:33;;;;;;;3.45;1.45;;;;;;;;;;4443453;28;20036;-64
2022/02/08 02:49:44;;;;;;;5.90;1.70;;;;;;;;;;4442350;28;20038;-64
2022/02/08 02:51:55;;;;;;;4.10;1.50;;;;;;;;;;4462882;28;20343;-64
2022/02/08 02:54:13;;;;;;;4.83;1.60;;;;;;;;;;4458156;28;20031;-64
2022/02/08 02:56:24;;;;;;;2.83;1.40;;;;;;;;;;4464485;28;20042;-64
2022/02/08 02:58:38;;;;;;;;;;;;;;;;;;4444616;28;20039;-64
2022/02/08 03:03:45;;;;;;;3.85;1.40;;;;;;;;;;4459418;28;20394;-64
2022/02/08 03:18:31;;;;;;;2.42;1.25;;;;;;;;;;4460122;28;20031;-64
2022/02/08 03:20:40;;;;;;;3.45;1.52;;;;;;;;;;4445754;28;20173;-64
2022/02/08 03:22:56;;;;;;;2.65;1.00;;;;;;;;;;4459462;28;20086;-64
2022/02/08 03:25:07;;;;;;;3.30;1.20;;;;;;;;;;4442992;28;20031;-64
2022/02/08 03:27:18;;;;;;;2.10;1.10;;;;;;;;;;4458035;28;20039;-64
2022/02/08 03:29:29;;;;;;;2.60;1.08;;;;;;;;;;4428214;28;20504;-64
2022/02/08 03:31:40;;;;;;;3.42;1.45;;;;;;;;;;4460008;28;20031;-64
2022/02/08 03:33:51;;;;;;;4.05;1.33;;;;;;;;;;4460022;28;20953;-64
2022/02/08 03:36:02;;;;;;;3.17;1.23;;;;;;;;;;4443816;28;20046;-64
2022/02/08 03:38:20;;;;;;;3.25;1.50;;;;;;;;;;4459205;28;20030;-64
2022/02/08 03:42:58;;;;;;;2.88;1.70;;;;;;;;;;4433124;28;20035;-64
2022/02/08 03:45:12;;;;;;;1.90;1.00;;;;;;;;;;4459262;28;20574;-64
2022/02/08 03:47:25;;;;;;;2.80;1.40;;;;;;;;;;4458882;28;20125;-64
2022/02/08 03:49:40;;;;;;;2.65;1.50;;;;;;;;;;4458601;28;20040;-65
2022/02/08 03:51:55;;;;;;;3.78;1.70;;;;;;;;;;4460469;28;20559;-64
2022/02/08 03:54:06;;;;;;;1.42;1.08;;;;;;;;;;4458760;28;20046;-64
2022/02/08 03:56:21;;;;;;;1.55;0.88;;;;;;;;;;4457685;28;20726;-64
2022/02/08 03:58:34;;;;;;;1.98;0.90;;;;;;;;;;4458804;28;20783;-64
2022/02/08 04:01:06;;;;;;;1.33;1.00;;;;;;;;;;4459132;28;20041;-64
2022/02/08 04:03:16;;;;;;;3.60;1.30;;;;;;;;;;4460657;28;20049;-64
2022/02/08 04:05:32;;;;;;;1.17;0.83;;;;;;;;;;4460615;28;20822;-64
2022/02/08 04:07:51;;;;;;;1.38;0.82;;;;;;;;;;4460748;28;20066;-64
2022/02/08 04:10:04;;;;;;;2.13;0.90;;;;;;;;;;4460668;28;20054;-64
2022/02/08 04:12:22;;;;;;;1.50;0.95;;;;;;;;;;4460429;28;20023;-64
2022/02/08 04:14:44;;;;;;;1.67;0.90;;;;;;;;;;4442509;28;20090;-64
2022/02/08 04:16:59;;;;;;;;;;;;;;;;;;4461099;28;20119;-64
2022/02/08 04:31:50;;;;;;;1.45;1.00;;;;;;;;;;4462250;28;21844;-64
2022/02/08 04:41:19;;;;;;;1.30;0.85;;;;;;;;;;4448527;28;21243;-64
2022/02/08 04:43:44;;;;;;;1.27;0.77;;;;;;;;;;4441838;28;20425;-64
2022/02/08 04:46:10;;;;;;;1.10;0.70;;;;;;;;;;4443602;28;20070;-64
2022/02/08 04:50:55;;;;;;;0.60;0.60;;;;;;;;;;4462784;28;20054;-64
2022/02/08 04:53:14;;;;;;;1.33;0.85;;;;;;;;;;4464449;28;20134;-64
2022/02/08 04:57:45;;;;;;;1.03;0.60;;;;;;;;;;4462648;28;20050;-64
2022/02/08 05:41:40;;;;;;;0.70;0.70;;;;;;;;;;4464951;28;20050;-64
2022/02/08 05:48:10;;;;;;;0.67;0.60;;;;;;;;;;4463430;28;20061;-64
2022/02/08 05:50:37;;;;;;;0.40;0.40;;;;;;;;;;4462549;28;20051;-64
2022/02/08 05:52:49;;;;;;;0.63;0.60;;;;;;;;;;4462025;28;20039;-64
2022/02/08 05:55:00;;;;;;;0.70;0.70;;;;;;;;;;4460038;28;20059;-64
2022/02/08 05:57:10;;;;;;;0.50;0.50;;;;;;;;;;4459046;28;20038;-64
2022/02/08 05:59:22;;;;;;;0.60;0.60;;;;;;;;;;4462199;28;20046;-64
2022/02/08 06:01:32;;;;;;;1.20;0.70;;;;;;;;;;4444979;28;20158;-64
2022/02/08 06:04:05;;;;;;;0.75;0.73;;;;;;;;;;4462095;28;20222;-64
2022/02/08 06:06:16;;;;;;;1.00;0.80;;;;;;;;;;4460889;28;20049;-64
2022/02/08 06:08:26;;;;;;;1.23;0.90;;;;;;;;;;4444915;28;20039;-64
2022/02/08 06:10:46;;;;;;;0.70;0.70;;;;;;;;;;4461458;28;20039;-64
2022/02/08 06:12:58;;;;;;;0.65;0.65;;;;;;;;;;4461020;28;20039;-64
2022/02/08 06:15:20;;;;;;;1.88;0.80;;;;;;;;;;4450146;28;20039;-64
2022/02/08 06:17:31;;;;;;;1.15;0.90;;;;;;;;;;4461031;28;20035;-64
2022/02/08 06:19:41;;;;;;;1.20;1.10;;;;;;;;;;4462103;28;20083;-64
2022/02/08 06:21:52;;;;;;;2.03;1.20;;;;;;;;;;4444783;28;20362;-64
2022/02/08 06:24:02;;;;;;;1.47;1.07;;;;;;;;;;4442955;28;20047;-64
2022/02/08 06:26:14;;;;;;;1.73;1.00;;;;;;;;;;4461199;28;20042;-64
2022/02/08 06:28:25;;;;;;;1.38;1.00;;;;;;;;;;4428112;28;20032;-64
2022/02/08 06:30:35;;;;;;;1.17;1.07;;;;;;;;;;4449118;28;20047;-64
2022/02/08 06:32:46;;;;;;;1.77;1.13;;;;;;;;;;4460201;28;21760;-64
2022/02/08 06:34:57;;;;;;;1.50;0.90;;;;;;;;;;4434156;28;20539;-64
2022/02/08 06:37:12;;;;;;;;;;;;;;;;;;4461215;28;20626;-65
2022/02/08 06:39:22;;;;;;;2.47;1.17;;;;;;;;;;4463350;28;19918;-64
2022/02/08 06:41:33;;;;;;;1.30;1.00;;;;;;;;;;4461573;28;20031;-64
2022/02/08 06:43:43;;;;;;;1.30;1.00;;;;;;;;;;4447248;28;20057;-65
2022/02/08 06:45:54;;;;;;;1.00;0.90;;;;;;;;;;4443700;28;20039;-65
2022/02/08 06:48:05;;;;;;;2.30;1.30;;;;;;;;;;4460069;28;20035;-64
2022/02/08 06:50:16;;;;;;;1.55;1.20;;;;;;;;;;4460694;28;20118;-65
2022/02/08 06:52:26;;;;;;;1.33;1.10;;;;;;;;;;4443913;28;20039;-65
2022/02/08 06:54:37;;;;;;;2.53;1.43;;;;;;;;;;4458552;28;20073;-64
2022/02/08 06:56:47;;;;;;;1.63;1.20;;;;;;;;;;4459791;28;20039;-65
2022/02/08 06:59:05;;;;;;;1.90;1.10;;;;;;;;;;4448849;28;20043;-65
2022/02/08 07:01:17;;;;;;;1.88;1.38;;;;;;;;;;4426954;28;20163;-64
2022/02/08 07:03:28;;;;;;;1.98;1.40;;;;;;;;;;4443430;28;20657;-65
2022/02/08 07:05:39;;;;;;;2.33;1.57;;;;;;;;;;4442322;28;36412;-65
2022/02/08 07:07:49;;;;;;;1.90;1.25;;;;;;;;;;4445685;28;20031;-65
2022/02/08 07:09:59;;;;;;;1.77;1.37;;;;;;;;;;4461002;28;20753;-64
2022/02/08 07:12:10;;;;;;;2.27;1.50;;;;;;;;;;4458212;28;20066;-65
2022/02/08 07:14:26;;;;;;;2.30;1.40;;;;;;;;;;4460170;28;20507;-64
2022/02/08 07:16:36;;;;;;;2.97;1.65;;;;;;;;;;4460607;28;20114;-65
2022/02/08 07:18:47;;;;;;;4.47;2.57;;;;;;;;;;4460915;28;20054;-64
2022/02/08 07:20:57;;;;;;;4.67;2.83;;;;;;;;;;4447465;28;20210;-65
2022/02/08 07:23:08;;;;;;;3.00;1.97;;;;;;;;;;4428903;28;20032;-64
2022/02/08 07:25:18;;;;;;;2.63;1.50;;;;;;;;;;4460480;28;20040;-64
2022/02/08 07:27:29;;;;;;;20.53;16.00;;;;;;;;;;4460814;28;20589;-65
2022/02/08 07:29:39;;;;;;;19.27;17.33;;;;;;;;;;4462416;28;20091;-64
2022/02/08 07:31:54;;;;;;;18.57;16.47;;;;;;;;;;4463385;28;20039;-65
2022/02/08 07:34:20;;;;;;;19.35;17.30;;;;;;;;;;4460530;28;20038;-65
2022/02/08 07:36:43;;;;;;;19.75;17.65;;;;;;;;;;4461681;28;20574;-64
2022/02/08 07:38:54;;;;;;;18.40;16.45;;;;;;;;;;4443937;28;21291;-64
2022/02/08 07:43:16;;;;;;;18.43;16.43;;;;;;;;;;4460871;28;20043;-65
2022/02/08 07:45:49;;;;;;;16.48;14.77;;;;;;;;;;4429753;28;20090;-65
2022/02/08 07:48:20;;;;;;;15.43;13.77;;;;;;;;;;4459044;28;20081;-65
2022/02/08 07:50:31;;;;;;;19.50;17.50;;;;;;;;;;4406889;29;20107;-64
2022/02/08 07:52:44;;;;;;;16.98;15.23;;;;;;;;;;4388818;29;20051;-64
2022/02/08 07:54:54;;;;;;;19.48;17.48;;;;;;;;;;4404976;29;20044;-64
2022/02/08 07:57:05;;;;;;;8.03;7.10;;;;;;;;;;4410079;29;20044;-64
2022/02/08 07:59:16;;;;;;;16.07;14.20;;;;;;;;;;4410251;29;20036;-65
2022/02/08 08:01:26;;;;;;;17.57;15.77;;;;;;;;;;4389361;29;20282;-64
2022/02/08 08:03:40;;;;;;;18.27;16.43;;;;;;;;;;4405252;29;20068;-64
2022/02/08 08:05:51;;;;;;;18.38;16.38;;;;;;;;;;4390232;29;20151;-64
2022/02/08 08:08:01;;;;;;;19.37;17.37;;;;;;;;;;4405131;29;20531;-64
2022/02/08 08:10:17;;;;;;;18.63;16.70;;;;;;;;;;4405427;29;20469;-64
2022/02/08 08:12:29;;;;;;;18.20;16.35;;;;;;;;;;4403585;29;20032;-64
2022/02/08 08:14:39;;;;;;;19.30;17.30;;;;;;;;;;4389044;29;20052;-65
2022/02/08 08:17:04;;;;;;;18.77;16.87;;;;;;;;;;4405127;29;20036;-65
2022/02/08 08:21:25;;;;;;;17.80;16.00;;;;;;;;;;4404429;29;20405;-65
2022/02/08 08:23:36;;;;;;;19.67;17.58;;;;;;;;;;4405094;29;20041;-65
2022/02/08 08:25:49;;;;;;;18.40;16.50;;;;;;;;;;4408526;29;20497;-65
2022/02/08 08:27:59;;;;;;;17.65;15.85;;;;;;;;;;4443711;28;20039;-65
2022/02/08 08:30:10;;;;;;;17.47;15.67;;;;;;;;;;4461768;28;24370;-65
2022/02/08 08:32:21;;;;;;;13.80;12.35;;;;;;;;;;4446873;28;20587;-65
2022/02/08 08:34:33;;;;;;;2.93;1.63;;;;;;;;;;4464124;28;20043;-65
2022/02/08 08:36:46;;;;;;;2.05;1.50;;;;;;;;;;4445998;28;20062;-65
2022/02/08 08:38:57;;;;;;;2.17;1.50;;;;;;;;;;4446493;28;20515;-64
2022/02/08 08:41:23;;;;;;;1.23;1.13;;;;;;;;;;4445614;28;20058;-65
2022/02/08 08:51:15;;;;;;;2.75;1.63;;;;;;;;;;4462594;28;20039;-65
2022/02/08 08:53:06;;;;;;;2.60;1.52;;;;;;;;;;4464003;28;20055;-64
2022/02/08 08:55:17;;;;;;;2.45;1.50;;;;;;;;;;4461116;28;20047;-63
2022/02/08 08:57:28;;;;;;;1.57;1.20;;;;;;;;;;4449375;28;20023;-64
2022/02/08 08:59:38;;;;;;;1.58;1.27;;;;;;;;;;4462460;28;20447;-65
2022/02/08 09:01:49;;;;;;;1.93;1.40;;;;;;;;;;4454906;28;20039;-65
2022/02/08 09:04:00;;;;;;;2.00;1.23;;;;;;;;;;4458882;28;20027;-65
2022/02/08 09:06:10;;;;;;;1.40;1.17;;;;;;;;;;4461849;28;20039;-65
2022/02/08 09:08:22;;;;;;;1.23;1.10;;;;;;;;;;4463789;28;20113;-63
2022/02/08 09:10:45;;;;;;;2.28;1.35;;;;;;;;;;4462570;28;20039;-64
2022/02/08 09:13:19;;;;;;;2.13;1.40;;;;;;;;;;4445415;28;20094;-64
2022/02/08 09:15:58;;;;;;;1.45;1.30;;;;;;;;;;4462266;28;20529;-64
2022/02/08 09:20:52;;;;;;;1.63;1.40;;;;;;;;;;4463227;28;20106;-63
2022/02/08 09:28:02;;;;;;;2.90;1.50;;;;;;;;;;4463209;28;20035;-63
2022/02/08 09:30:18;;;;;;;2.08;1.52;;;;;;;;;;4463002;28;20046;-63
2022/02/08 09:32:42;;;;;;;1.50;1.40;;;;;;;;;;4462205;28;20612;-63
2022/02/08 09:34:52;;;;;;;3.05;1.50;;;;;;;;;;4462778;28;20620;-64
2022/02/08 09:37:03;;;;;;;1.50;1.30;;;;;;;;;;4444730;28;20240;-63
2022/02/08 09:39:13;;;;;;;2.83;1.60;;;;;;;;;;4461083;28;20031;-64
2022/02/08 09:41:24;;;;;;;2.40;1.70;;;;;;;;;;4460923;28;20089;-63
2022/02/08 09:43:37;;;;;;;2.05;1.58;;;;;;;;;;4460428;28;20846;-64
2022/02/08 09:45:49;;;;;;;;;;;;;;;;;;4447708;28;20227;-63
2022/02/08 09:50:19;;;;;;;2.43;1.60;;;;;;;;;;4461947;28;20476;-72
2022/02/08 09:52:29;;;;;;;3.70;1.52;;;;;;;;;;4462877;28;20114;-72
2022/02/08 09:54:40;;;;;;;2.00;1.40;;;;;;;;;;4463625;28;20102;-74
2022/02/08 09:56:50;;;;;;;2.83;1.77;;;;;;;;;;4459287;28;20031;-75
2022/02/08 09:59:04;;;;;;;2.50;1.60;;;;;;;;;;4443616;28;20148;-67
2022/02/08 10:01:21;;;;;;;3.90;1.83;;;;;;;;;;4461229;28;20046;-66
2022/02/08 10:03:32;;;;;;;3.08;1.67;;;;;;;;;;4444190;28;20038;-64
2022/02/08 10:05:53;;;;;;;3.03;1.70;;;;;;;;;;4445701;28;20880;-65
2022/02/08 10:08:07;;;;;;;;;;;;;;;;;;4462386;28;20086;-65
2022/02/08 10:10:24;;;;;;;3.50;1.80;;;;;;;;;;4462099;28;20528;-64
2022/02/08 10:12:58;;;;;;;4.43;3.05;;;;;;;;;;4460325;28;20042;-64
2022/02/08 10:22:17;;;;;;;3.35;1.92;;;;;;;;;;4444968;28;20039;-64
2022/02/08 10:24:32;;;;;;;3.50;2.07;;;;;;;;;;4444768;28;20045;-64
2022/02/08 10:29:06;;;;;;;4.28;2.75;;;;;;;;;;4461414;28;20504;-65
2022/02/08 10:38:43;;;;;;;3.00;2.05;;;;;;;;;;4459895;28;20038;-64
2022/02/08 10:40:56;;;;;;;2.63;1.85;;;;;;;;;;4444625;28;20043;-64
2022/02/08 10:43:09;;;;;;;3.38;2.30;;;;;;;;;;4461236;28;20468;-64
2022/02/08 10:45:26;;;;;;;2.40;1.85;;;;;;;;;;4444477;28;20039;-64
2022/02/08 10:47:41;;;;;;;3.40;2.10;;;;;;;;;;4464208;28;20039;-67
2022/02/08 10:49:52;;;;;;;2.90;2.00;;;;;;;;;;4448887;28;20098;-68
2022/02/08 10:52:04;;;;;;;3.58;2.05;;;;;;;;;;4458281;28;20122;-69
2022/02/08 10:54:36;;;;;;;2.47;1.80;;;;;;;;;;4461597;28;20147;-69
2022/02/08 10:56:52;;;;;;;2.63;1.85;;;;;;;;;;4460937;28;20130;-67
2022/02/08 11:01:28;;;;;;;2.95;1.80;;;;;;;;;;4449220;28;20213;-64
2022/02/08 11:03:54;;;;;;;3.28;1.70;;;;;;;;;;4461201;28;20043;-64
2022/02/08 11:17:56;;;;;;;3.50;2.30;;;;;;;;;;4457903;28;20138;-63
2022/02/08 11:20:19;;;;;;;5.30;2.70;;;;;;;;;;4445591;28;20044;-63
2022/02/08 11:24:46;;;;;;;3.05;1.80;;;;;;;;;;4443593;28;20416;-63
2022/02/08 11:27:06;;;;;;;2.53;1.90;;;;;;;;;;4463553;28;20817;-63
2022/02/08 11:29:28;;;;;;;3.60;2.00;;;;;;;;;;4444612;28;21161;-65
2022/02/08 11:31:44;;;;;;;4.43;2.42;;;;;;;;;;4446294;28;20035;-63
2022/02/08 11:42:50;;;;;;;3.70;2.55;;;;;;;;;;4460068;28;20201;-63
2022/02/08 11:46:52;;;;;;;8.68;6.45;;;;;;;;;;4459401;28;20051;-63
2022/02/08 11:54:05;;;;;;;3.92;2.28;;;;;;;;;;4451034;28;20058;-62
2022/02/08 11:56:39;;;;;;;3.30;1.83;;;;;;;;;;4445492;28;20042;-63
2022/02/08 11:59:25;;;;;;;3.42;1.58;;;;;;;;;;4460664;28;20057;-62
2022/02/08 12:04:37;;;;;;;2.03;1.25;;;;;;;;;;4459993;28;20035;-64
2022/02/08 12:09:12;;;;;;;3.25;1.70;;;;;;;;;;4443135;28;20036;-63
2022/02/08 12:11:40;;;;;;;2.38;1.52;;;;;;;;;;4461415;28;20098;-62
2022/02/08 12:30:10;;;;;;;2.17;1.30;;;;;;;;;;4458599;28;20039;-63
2022/02/08 12:32:06;;;;;;;2.70;1.58;;;;;;;;;;4456946;28;20107;-62
2022/02/08 12:36:43;;;;;;;2.53;1.10;;;;;;;;;;4442117;28;20065;-62
2022/02/08 12:56:22;;;;;;;1.98;1.00;;;;;;;;;;4460235;28;20043;-63
2022/02/08 12:58:49;;;;;;;3.65;1.42;;;;;;;;;;4460441;28;20802;-63
2022/02/08 13:01:32;;;;;;;1.85;1.17;;;;;;;;;;4445064;28;20046;-63
2022/02/08 13:03:54;;;;;;;4.72;1.70;;;;;;;;;;4459231;28;20035;-63
2022/02/08 14:07:41;;;;;;;2.42;1.13;;;;;;;;;;4460383;28;20039;-63
2022/02/08 14:10:00;;;;;;;1.63;1.05;;;;;;;;;;4458458;28;20039;-63
2022/02/08 14:23:07;;;;;;;1.60;1.00;;;;;;;;;;4442436;28;20065;-63
2022/02/08 14:25:27;;;;;;;3.10;1.08;;;;;;;;;;4449374;28;20030;-63
2022/02/08 14:30:13;;;;;;;1.48;1.00;;;;;;;;;;4448690;28;20153;-64
2022/02/08 15:08:48;;;;;;;2.10;1.20;;;;;;;;;;4459157;28;20570;-63
2022/02/08 15:11:06;;;;;;;4.03;1.50;;;;;;;;;;4460464;28;20597;-63
2022/02/08 15:13:20;;;;;;;3.17;1.20;;;;;;;;;;4460963;28;20121;-63
2022/02/08 15:15:41;;;;;;;2.72;1.17;;;;;;;;;;4446599;28;20039;-65
2022/02/08 15:17:52;;;;;;;1.48;1.05;;;;;;;;;;4460370;28;20034;-62
2022/02/08 15:20:04;;;;;;;4.23;1.30;;;;;;;;;;4461514;28;20082;-62
2022/02/08 15:22:16;;;;;;;2.78;1.17;;;;;;;;;;4459158;28;20117;-65
2022/02/08 15:24:26;;;;;;;1.52;0.82;;;;;;;;;;4461171;28;20146;-65
2022/02/08 15:26:42;;;;;;;1.77;0.83;;;;;;;;;;4460113;28;20045;-67
2022/02/08 15:28:53;;;;;;;2.00;0.82;;;;;;;;;;4460478;28;20576;-65
2022/02/08 15:31:04;;;;;;;1.70;0.98;;;;;;;;;;4459160;28;20042;-66
2022/02/08 15:33:14;;;;;;;2.67;1.10;;;;;;;;;;4442564;28;20423;-65
2022/02/08 15:35:25;;;;;;;2.97;1.20;;;;;;;;;;4450222;28;20039;-65
2022/02/08 15:37:36;;;;;;;2.55;1.27;;;;;;;;;;4458677;28;20819;-64
2022/02/08 15:39:46;;;;;;;2.70;1.00;;;;;;;;;;4457257;28;20031;-65
2022/02/08 15:41:57;;;;;;;3.60;1.10;;;;;;;;;;4457891;28;20557;-64
2022/02/08 15:44:15;;;;;;;1.70;0.87;;;;;;;;;;4457354;28;20501;-66
2022/02/08 15:46:26;;;;;;;1.95;1.10;;;;;;;;;;4460295;28;20649;-64
2022/02/08 15:48:37;;;;;;;1.85;1.15;;;;;;;;;;4459726;28;20039;-70
2022/02/08 15:51:39;;;;;;;4.72;2.45;;;;;;;;;;4462209;28;20977;-72
2022/02/08 15:56:07;;;;;;;2.08;1.38;;;;;;;;;;4447181;28;20102;-67
2022/02/08 16:00:03;;;;;;;2.88;1.10;;;;;;;;;;4460598;28;20082;-66
2022/02/08 16:08:22;;;;;;;4.03;2.08;;;;;;;;;;4449222;28;20074;-63
2022/02/08 16:11:05;;;;;;;3.40;2.00;;;;;;;;;;4458218;28;20821;-63
2022/02/08 16:15:40;;;;;;;48.08;43.38;;;;;;;;;;4458504;28;20054;-63
2022/02/08 16:18:14;;;;;;;49.78;45.08;;;;;;;;;;4455322;28;20198;-63
2022/02/08 16:32:37;;;;;;;48.80;44.10;;;;;;;;;;4456494;28;20575;-61
2022/02/08 16:59:05;;;;;;;41.20;37.25;;;;;;;;;;4460857;28;20023;-64
2022/02/08 17:01:22;;;;;;;51.57;46.67;;;;;;;;;;4461236;28;20039;-63
2022/02/08 17:03:33;;;;;;;46.78;42.53;;;;;;;;;;4459675;28;20033;-64
2022/02/08 17:05:43;;;;;;;42.27;38.33;;;;;;;;;;4461322;28;20507;-64
2022/02/08 17:07:54;;;;;;;50.27;45.57;;;;;;;;;;4459855;28;20530;-63
2022/02/08 17:10:08;;;;;;;34.03;30.77;;;;;;;;;;4459611;28;20122;-64
2022/02/08 17:12:21;;;;;;;41.08;37.33;;;;;;;;;;4459715;28;20023;-64
2022/02/08 17:19:31;;;;;;;47.53;43.13;;;;;;;;;;4459791;28;20023;-66
2022/02/08 17:46:34;;;;;;;43.72;39.53;;;;;;;;;;4459506;28;20929;-64
2022/02/08 17:48:45;;;;;;;30.17;27.48;;;;;;;;;;4460112;28;20617;-64
2022/02/08 17:50:55;;;;;;;42.95;39.00;;;;;;;;;;4460033;28;20036;-63
2022/02/08 17:53:06;;;;;;;37.77;34.37;;;;;;;;;;4459429;28;20027;-64
2022/02/08 17:55:17;;;;;;;40.33;36.77;;;;;;;;;;4443351;28;20408;-64
2022/02/08 17:57:27;;;;;;;39.97;36.42;;;;;;;;;;4444944;28;20035;-64
2022/02/08 17:59:38;;;;;;;44.63;40.43;;;;;;;;;;4458843;28;20027;-64
2022/02/08 18:01:50;;;;;;;47.53;43.13;;;;;;;;;;4461285;28;20031;-63
2022/02/08 18:04:00;;;;;;;45.58;41.33;;;;;;;;;;4457736;28;20051;-64
2022/02/08 18:06:10;;;;;;;46.60;42.23;;;;;;;;;;4460019;28;20110;-63
2022/02/08 18:08:23;;;;;;;46.67;42.33;;;;;;;;;;4458807;28;21396;-63
2022/02/08 18:10:34;;;;;;;42.60;38.70;;;;;;;;;;4458323;28;20042;-63
2022/02/08 18:12:45;;;;;;;44.30;40.23;;;;;;;;;;4459315;28;20034;-63
2022/02/08 18:15:07;;;;;;;44.63;40.45;;;;;;;;;;4458337;28;20090;-63
2022/02/08 18:17:24;;;;;;;44.00;39.83;;;;;;;;;;4459801;28;20078;-64
2022/02/08 18:19:38;;;;;;;44.10;40.00;;;;;;;;;;4458525;28;20070;-64
2022/02/08 18:22:11;;;;;;;45.97;41.78;;;;;;;;;;4460126;28;20638;-64
2022/02/08 18:24:31;;;;;;;46.22;41.83;;;;;;;;;;4460218;28;20673;-64
2022/02/08 18:53:41;;;;;;;38.83;35.13;;;;;;;;;;4459041;28;20583;-65
2022/02/08 19:16:02;;;;;;;41.50;37.70;;;;;;;;;;4433126;28;20082;-65
2022/02/08 19:21:08;;;;;;;38.63;35.08;;;;;;;;;;4412975;28;20040;-64
2022/02/08 19:23:18;;;;;;;41.65;37.85;;;;;;;;;;4440482;28;20185;-64
2022/02/08 19:25:29;;;;;;;41.23;37.47;;;;;;;;;;4458316;28;20122;-63
2022/02/08 19:27:42;;;;;;;4.60;2.73;;;;;;;;;;4456889;28;20027;-64
2022/02/08 19:29:53;;;;;;;2.40;1.80;;;;;;;;;;4460379;28;21006;-64
2022/02/08 19:32:07;;;;;;;3.97;2.27;;;;;;;;;;4459618;28;20059;-64
2022/02/08 19:34:17;;;;;;;8.98;4.88;;;;;;;;;;4457687;28;20672;-64
2022/02/08 19:36:27;;;;;;;13.47;7.80;;;;;;;;;;4457013;28;21629;-64
2022/02/08 19:38:41;;;;;;;11.27;5.50;;;;;;;;;;4457704;28;20034;-64
2022/02/08 19:40:53;;;;;;;10.80;5.63;;;;;;;;;;4449166;28;20028;-64
2022/02/08 19:43:06;;;;;;;16.35;8.57;;;;;;;;;;4457844;28;20058;-64
2022/02/08 19:45:22;;;;;;;14.65;7.80;;;;;;;;;;4428558;28;21385;-64
2022/02/08 19:47:32;;;;;;;16.95;8.02;;;;;;;;;;4457019;28;20022;-64
2022/02/08 19:49:43;;;;;;;20.03;11.73;;;;;;;;;;4457166;28;20086;-64
2022/02/08 19:51:54;;;;;;;3.10;2.63;;;;;;;;;;4455212;28;20019;-64
2022/02/08 19:54:07;;;;;;;2.73;1.70;;;;;;;;;;4457709;28;20368;-64
2022/02/08 19:56:33;;;;;;;27.88;25.15;;;;;;;;;;4457959;28;20884;-64
2022/02/08 19:58:51;;;;;;;29.35;26.52;;;;;;;;;;4455488;28;20074;-64
2022/02/08 20:01:08;;;;;;;28.48;25.77;;;;;;;;;;4443993;28;20083;-64
2022/02/08 20:03:19;;;;;;;8.20;7.35;;;;;;;;;;4457339;28;20038;-65
2022/02/08 20:05:31;;;;;;;19.70;17.77;;;;;;;;;;4445389;28;20038;-64
2022/02/08 20:07:43;;;;;;;9.95;8.95;;;;;;;;;;4443063;28;20040;-65
2022/02/08 20:09:54;;;;;;;23.70;21.45;;;;;;;;;;4444439;28;20031;-65
2022/02/08 20:12:05;;;;;;;19.30;17.33;;;;;;;;;;4438615;28;20035;-64
2022/02/08 20:14:17;;;;;;;24.55;22.20;;;;;;;;;;4456247;28;20114;-65
2022/02/08 20:16:28;;;;;;;9.38;8.38;;;;;;;;;;4455144;28;21085;-65
2022/02/08 20:18:40;;;;;;;6.82;6.13;;;;;;;;;;4445481;28;20110;-65
2022/02/08 20:20:51;;;;;;;23.25;20.90;;;;;;;;;;4457183;28;20026;-64
2022/02/08 20:23:03;;;;;;;3.05;2.03;;;;;;;;;;4454852;28;20038;-64
2022/02/08 20:25:16;;;;;;;2.13;1.42;;;;;;;;;;4456477;28;20037;-64
2022/02/08 20:29:40;;;;;;;3.30;1.60;;;;;;;;;;4439315;28;20023;-64
2022/02/08 20:31:51;;;;;;;1.63;1.30;;;;;;;;;;4454907;28;20042;-64
2022/02/08 20:34:01;;;;;;;1.77;1.25;;;;;;;;;;4443014;28;20327;-64
2022/02/08 20:36:12;;;;;;;3.20;1.70;;;;;;;;;;4446233;28;20119;-64
2022/02/08 20:38:23;;;;;;;3.53;1.40;;;;;;;;;;4455803;28;20035;-64
2022/02/08 20:40:39;;;;;;;3.63;1.40;;;;;;;;;;4439613;28;20472;-64
2022/02/08 20:42:56;;;;;;;1.65;1.25;;;;;;;;;;4456720;28;20058;-64
2022/02/08 20:45:07;;;;;;;1.70;1.13;;;;;;;;;;4438032;28;20027;-64
2022/02/08 20:47:26;;;;;;;2.30;1.10;;;;;;;;;;4456312;28;20038;-63